sensor_id;sensor_type;location;lat;lon;timestamp;temperature;humidity
7002;DHT22;3541;53.230;10.518;2023-06-14T00:00:02;19.60;99.90
7002;DHT22;3541;53.230;10.518;2023-06-14T00:02:29;19.70;99.90
7002;DHT22;3541;53.230;10.518;2023-06-14T00:04:56;19.60;99.90
7002;DHT22;3541;53.230;10.518;2023-06-14T00:07:34;19.60;99.90
7002;DHT22;3541;53.230;10.518;2023-06-14T00:10:01;19.30;99.90
7002;DHT22;3541;53.230;10.518;2023-06-14T00:12:30;19.20;99.90
7002;DHT22;3541;53.230;10.518;2023-06-14T00:14:56;19.30;99.90
7002;DHT22;3541;53.230;10.518;2023-06-14T00:17:23;19.40;99.90
7002;DHT22;3541;53.230;10.518;2023-06-14T00:19:50;19.30;99.90
7002;DHT22;3541;53.230;10.518;2023-06-14T00:22:16;19.30;99.90
7002;DHT22;3541;53.230;10.518;2023-06-14T00:24:43;19.40;99.90
7002;DHT22;3541;53.230;10.518;2023-06-14T00:27:10;19.30;99.90
7002;DHT22;3541;53.230;10.518;2023-06-14T00:29:37;19.30;99.90
7002;DHT22;3541;53.230;10.518;2023-06-14T00:32:05;19.40;99.90
7002;DHT22;3541;53.230;10.518;2023-06-14T00:34:31;19.20;99.90
7002;DHT22;3541;53.230;10.518;2023-06-14T00:36:58;19.30;99.90
7002;DHT22;3541;53.230;10.518;2023-06-14T00:39:25;19.20;99.90
7002;DHT22;3541;53.230;10.518;2023-06-14T00:41:51;19.10;99.90
7002;DHT22;3541;53.230;10.518;2023-06-14T00:44:18;19.10;99.90
7002;DHT22;3541;53.230;10.518;2023-06-14T00:46:46;19.10;99.90
7002;DHT22;3541;53.230;10.518;2023-06-14T00:49:14;19.10;99.90
7002;DHT22;3541;53.230;10.518;2023-06-14T00:51:41;19.10;99.90
7002;DHT22;3541;53.230;10.518;2023-06-14T00:54:08;19.00;99.90
7002;DHT22;3541;53.230;10.518;2023-06-14T00:56:35;19.00;99.90
7002;DHT22;3541;53.230;10.518;2023-06-14T00:59:02;18.90;99.90
7002;DHT22;3541;53.230;10.518;2023-06-14T01:01:29;18.80;99.90
7002;DHT22;3541;53.230;10.518;2023-06-14T01:03:59;18.70;99.90
7002;DHT22;3541;53.230;10.518;2023-06-14T01:06:32;18.60;99.90
7002;DHT22;3541;53.230;10.518;2023-06-14T01:09:05;18.60;99.90
7002;DHT22;3541;53.230;10.518;2023-06-14T01:11:40;18.60;99.90
7002;DHT22;3541;53.230;10.518;2023-06-14T01:14:07;18.60;99.90
7002;DHT22;3541;53.230;10.518;2023-06-14T01:16:36;18.60;99.90
7002;DHT22;3541;53.230;10.518;2023-06-14T01:19:08;18.60;99.90
7002;DHT22;3541;53.230;10.518;2023-06-14T01:21:37;18.60;99.90
7002;DHT22;3541;53.230;10.518;2023-06-14T01:24:08;18.60;99.90
7002;DHT22;3541;53.230;10.518;2023-06-14T01:26:36;18.50;99.90
7002;DHT22;3541;53.230;10.518;2023-06-14T01:29:04;18.50;99.90
7002;DHT22;3541;53.230;10.518;2023-06-14T01:31:32;18.60;99.90
7002;DHT22;3541;53.230;10.518;2023-06-14T01:34:06;18.60;99.90
7002;DHT22;3541;53.230;10.518;2023-06-14T01:36:34;18.60;99.90
7002;DHT22;3541;53.230;10.518;2023-06-14T01:39:04;18.50;99.90
7002;DHT22;3541;53.230;10.518;2023-06-14T01:41:33;18.40;99.90
7002;DHT22;3541;53.230;10.518;2023-06-14T01:44:01;18.30;99.90
7002;DHT22;3541;53.230;10.518;2023-06-14T01:46:28;18.30;99.90
7002;DHT22;3541;53.230;10.518;2023-06-14T01:48:55;18.30;99.90
7002;DHT22;3541;53.230;10.518;2023-06-14T01:51:21;18.20;99.90
7002;DHT22;3541;53.230;10.518;2023-06-14T01:53:48;18.20;99.90
7002;DHT22;3541;53.230;10.518;2023-06-14T01:56:14;18.20;99.90
7002;DHT22;3541;53.230;10.518;2023-06-14T01:58:42;18.10;99.90
7002;DHT22;3541;53.230;10.518;2023-06-14T02:01:09;18.10;99.90
7002;DHT22;3541;53.230;10.518;2023-06-14T02:03:37;18.10;99.90
7002;DHT22;3541;53.230;10.518;2023-06-14T02:06:04;18.10;99.90
7002;DHT22;3541;53.230;10.518;2023-06-14T02:08:31;18.00;99.90
7002;DHT22;3541;53.230;10.518;2023-06-14T02:10:57;18.00;99.90
7002;DHT22;3541;53.230;10.518;2023-06-14T02:13:24;18.00;99.90
7002;DHT22;3541;53.230;10.518;2023-06-14T02:15:52;17.90;99.90
7002;DHT22;3541;53.230;10.518;2023-06-14T02:18:19;17.90;99.90
7002;DHT22;3541;53.230;10.518;2023-06-14T02:20:46;17.80;99.90
7002;DHT22;3541;53.230;10.518;2023-06-14T02:23:13;17.80;99.90
7002;DHT22;3541;53.230;10.518;2023-06-14T02:25:40;17.90;99.90
7002;DHT22;3541;53.230;10.518;2023-06-14T02:28:08;17.90;99.90
7002;DHT22;3541;53.230;10.518;2023-06-14T02:30:35;17.80;99.90
7002;DHT22;3541;53.230;10.518;2023-06-14T02:33:03;17.70;99.90
7002;DHT22;3541;53.230;10.518;2023-06-14T02:35:30;17.70;99.90
7002;DHT22;3541;53.230;10.518;2023-06-14T02:37:56;17.60;99.90
7002;DHT22;3541;53.230;10.518;2023-06-14T02:40:23;17.60;99.90
7002;DHT22;3541;53.230;10.518;2023-06-14T02:42:50;17.60;99.90
7002;DHT22;3541;53.230;10.518;2023-06-14T02:45:17;17.60;99.90
7002;DHT22;3541;53.230;10.518;2023-06-14T02:47:44;17.50;99.90
7002;DHT22;3541;53.230;10.518;2023-06-14T02:50:13;17.50;99.90
7002;DHT22;3541;53.230;10.518;2023-06-14T02:52:40;17.40;99.90
7002;DHT22;3541;53.230;10.518;2023-06-14T02:55:10;17.40;99.90
7002;DHT22;3541;53.230;10.518;2023-06-14T02:57:36;17.40;99.90
7002;DHT22;3541;53.230;10.518;2023-06-14T03:00:04;17.40;99.90
7002;DHT22;3541;53.230;10.518;2023-06-14T03:02:34;17.50;99.90
7002;DHT22;3541;53.230;10.518;2023-06-14T03:05:01;17.30;99.90
7002;DHT22;3541;53.230;10.518;2023-06-14T03:07:30;17.30;99.90
7002;DHT22;3541;53.230;10.518;2023-06-14T03:09:56;17.20;99.90
7002;DHT22;3541;53.230;10.518;2023-06-14T03:12:23;17.20;99.90
7002;DHT22;3541;53.230;10.518;2023-06-14T03:14:50;17.20;99.90
7002;DHT22;3541;53.230;10.518;2023-06-14T03:17:17;17.20;99.90
7002;DHT22;3541;53.230;10.518;2023-06-14T03:19:44;17.20;99.90
7002;DHT22;3541;53.230;10.518;2023-06-14T03:22:11;17.10;99.90
7002;DHT22;3541;53.230;10.518;2023-06-14T03:24:39;17.10;99.90
7002;DHT22;3541;53.230;10.518;2023-06-14T03:27:06;17.10;99.90
7002;DHT22;3541;53.230;10.518;2023-06-14T03:29:35;17.00;99.90
7002;DHT22;3541;53.230;10.518;2023-06-14T03:32:02;17.00;99.90
7002;DHT22;3541;53.230;10.518;2023-06-14T03:34:29;17.00;99.90
7002;DHT22;3541;53.230;10.518;2023-06-14T03:36:56;17.00;99.90
7002;DHT22;3541;53.230;10.518;2023-06-14T03:39:22;17.00;99.90
7002;DHT22;3541;53.230;10.518;2023-06-14T03:41:50;17.00;99.90
7002;DHT22;3541;53.230;10.518;2023-06-14T03:44:17;17.10;99.90
7002;DHT22;3541;53.230;10.518;2023-06-14T03:46:44;17.00;99.90
7002;DHT22;3541;53.230;10.518;2023-06-14T03:49:11;17.00;99.90
7002;DHT22;3541;53.230;10.518;2023-06-14T03:51:39;17.00;99.90
7002;DHT22;3541;53.230;10.518;2023-06-14T03:54:06;17.00;99.90
7002;DHT22;3541;53.230;10.518;2023-06-14T03:56:32;17.00;99.90
7002;DHT22;3541;53.230;10.518;2023-06-14T03:59:00;17.00;99.90
7002;DHT22;3541;53.230;10.518;2023-06-14T04:01:27;17.00;99.90
7002;DHT22;3541;53.230;10.518;2023-06-14T04:03:55;17.10;99.90
7002;DHT22;3541;53.230;10.518;2023-06-14T04:06:22;17.00;99.90
7002;DHT22;3541;53.230;10.518;2023-06-14T04:08:50;16.90;99.90
7002;DHT22;3541;53.230;10.518;2023-06-14T04:11:17;17.00;99.90
7002;DHT22;3541;53.230;10.518;2023-06-14T04:13:44;17.00;99.90
7002;DHT22;3541;53.230;10.518;2023-06-14T04:16:12;17.00;99.90
7002;DHT22;3541;53.230;10.518;2023-06-14T04:18:38;17.00;99.90
7002;DHT22;3541;53.230;10.518;2023-06-14T04:21:05;17.00;99.90
7002;DHT22;3541;53.230;10.518;2023-06-14T04:23:31;17.00;99.90
7002;DHT22;3541;53.230;10.518;2023-06-14T04:25:58;17.10;99.90
7002;DHT22;3541;53.230;10.518;2023-06-14T04:28:28;17.10;99.90
7002;DHT22;3541;53.230;10.518;2023-06-14T04:30:55;17.10;99.90
7002;DHT22;3541;53.230;10.518;2023-06-14T04:33:23;16.90;99.90
7002;DHT22;3541;53.230;10.518;2023-06-14T04:35:51;16.90;99.90
7002;DHT22;3541;53.230;10.518;2023-06-14T04:38:19;16.90;99.90
7002;DHT22;3541;53.230;10.518;2023-06-14T04:40:49;17.00;99.90
7002;DHT22;3541;53.230;10.518;2023-06-14T04:43:18;17.10;99.90
7002;DHT22;3541;53.230;10.518;2023-06-14T04:45:50;17.10;99.90
7002;DHT22;3541;53.230;10.518;2023-06-14T04:48:17;17.10;99.90
7002;DHT22;3541;53.230;10.518;2023-06-14T04:50:46;16.90;99.90
7002;DHT22;3541;53.230;10.518;2023-06-14T04:53:12;17.00;99.90
7002;DHT22;3541;53.230;10.518;2023-06-14T04:55:39;17.00;99.90
7002;DHT22;3541;53.230;10.518;2023-06-14T04:58:10;17.00;99.90
7002;DHT22;3541;53.230;10.518;2023-06-14T05:00:38;17.10;99.90
7002;DHT22;3541;53.230;10.518;2023-06-14T05:03:04;17.20;99.90
7002;DHT22;3541;53.230;10.518;2023-06-14T05:05:32;17.20;99.90
7002;DHT22;3541;53.230;10.518;2023-06-14T05:07:59;17.20;99.90
7002;DHT22;3541;53.230;10.518;2023-06-14T05:10:26;17.20;99.90
7002;DHT22;3541;53.230;10.518;2023-06-14T05:12:53;17.30;99.90
7002;DHT22;3541;53.230;10.518;2023-06-14T05:15:19;17.30;99.90
7002;DHT22;3541;53.230;10.518;2023-06-14T05:17:50;17.40;99.90
7002;DHT22;3541;53.230;10.518;2023-06-14T05:20:20;17.30;99.90
7002;DHT22;3541;53.230;10.518;2023-06-14T05:22:48;17.30;99.90
7002;DHT22;3541;53.230;10.518;2023-06-14T05:25:16;17.40;99.90
7002;DHT22;3541;53.230;10.518;2023-06-14T05:27:43;17.50;99.90
7002;DHT22;3541;53.230;10.518;2023-06-14T05:30:11;17.40;99.90
7002;DHT22;3541;53.230;10.518;2023-06-14T05:32:37;17.50;99.90
7002;DHT22;3541;53.230;10.518;2023-06-14T05:35:05;17.60;99.90
7002;DHT22;3541;53.230;10.518;2023-06-14T05:37:32;17.60;99.90
7002;DHT22;3541;53.230;10.518;2023-06-14T05:39:58;17.50;99.90
7002;DHT22;3541;53.230;10.518;2023-06-14T05:42:26;17.60;99.90
7002;DHT22;3541;53.230;10.518;2023-06-14T05:44:53;17.50;99.90
7002;DHT22;3541;53.230;10.518;2023-06-14T05:47:20;17.60;99.90
7002;DHT22;3541;53.230;10.518;2023-06-14T05:49:47;17.50;99.90
7002;DHT22;3541;53.230;10.518;2023-06-14T05:52:14;17.60;99.90
7002;DHT22;3541;53.230;10.518;2023-06-14T05:54:40;17.60;99.90
7002;DHT22;3541;53.230;10.518;2023-06-14T05:57:07;17.70;99.90
7002;DHT22;3541;53.230;10.518;2023-06-14T05:59:35;17.80;99.90
7002;DHT22;3541;53.230;10.518;2023-06-14T06:02:01;17.80;99.90
7002;DHT22;3541;53.230;10.518;2023-06-14T06:04:28;17.80;99.90
7002;DHT22;3541;53.230;10.518;2023-06-14T06:06:55;17.90;99.90
7002;DHT22;3541;53.230;10.518;2023-06-14T06:09:21;18.00;99.90
7002;DHT22;3541;53.230;10.518;2023-06-14T06:11:48;18.10;99.90
7002;DHT22;3541;53.230;10.518;2023-06-14T06:14:15;18.10;99.90
7002;DHT22;3541;53.230;10.518;2023-06-14T06:16:43;18.10;99.90
7002;DHT22;3541;53.230;10.518;2023-06-14T06:19:09;18.20;99.90
7002;DHT22;3541;53.230;10.518;2023-06-14T06:21:36;18.20;99.90
7002;DHT22;3541;53.230;10.518;2023-06-14T06:24:04;18.30;99.90
7002;DHT22;3541;53.230;10.518;2023-06-14T06:26:31;18.40;99.90
7002;DHT22;3541;53.230;10.518;2023-06-14T06:28:57;18.30;99.90
7002;DHT22;3541;53.230;10.518;2023-06-14T06:31:24;18.40;99.90
7002;DHT22;3541;53.230;10.518;2023-06-14T06:33:55;18.40;99.90
7002;DHT22;3541;53.230;10.518;2023-06-14T06:36:21;18.50;99.90
7002;DHT22;3541;53.230;10.518;2023-06-14T06:38:48;18.40;99.90
7002;DHT22;3541;53.230;10.518;2023-06-14T06:41:15;18.50;99.90
7002;DHT22;3541;53.230;10.518;2023-06-14T07:47:06;19.50;99.90
7002;DHT22;3541;53.230;10.518;2023-06-14T07:49:33;19.80;99.90
7002;DHT22;3541;53.230;10.518;2023-06-14T07:52:00;19.80;99.90
7002;DHT22;3541;53.230;10.518;2023-06-14T07:54:26;19.90;99.90
7002;DHT22;3541;53.230;10.518;2023-06-14T07:56:55;20.00;99.90
7002;DHT22;3541;53.230;10.518;2023-06-14T07:59:22;20.10;99.90
7002;DHT22;3541;53.230;10.518;2023-06-14T08:01:49;20.10;99.90
7002;DHT22;3541;53.230;10.518;2023-06-14T08:04:17;20.10;99.90
7002;DHT22;3541;53.230;10.518;2023-06-14T08:06:43;20.20;99.90
7002;DHT22;3541;53.230;10.518;2023-06-14T08:09:11;20.20;99.90
7002;DHT22;3541;53.230;10.518;2023-06-14T08:11:37;20.30;99.90
7002;DHT22;3541;53.230;10.518;2023-06-14T08:14:04;20.40;99.90
7002;DHT22;3541;53.230;10.518;2023-06-14T08:16:30;20.40;99.90
7002;DHT22;3541;53.230;10.518;2023-06-14T08:18:57;20.50;99.90
7002;DHT22;3541;53.230;10.518;2023-06-14T08:21:25;20.50;99.90
7002;DHT22;3541;53.230;10.518;2023-06-14T08:23:52;20.50;99.90
7002;DHT22;3541;53.230;10.518;2023-06-14T08:26:19;20.60;99.90
7002;DHT22;3541;53.230;10.518;2023-06-14T08:28:46;20.70;99.90
7002;DHT22;3541;53.230;10.518;2023-06-14T08:31:13;20.80;99.90
7002;DHT22;3541;53.230;10.518;2023-06-14T08:33:40;20.90;99.90
7002;DHT22;3541;53.230;10.518;2023-06-14T08:36:08;20.90;99.90
7002;DHT22;3541;53.230;10.518;2023-06-14T08:38:37;21.00;99.90
7002;DHT22;3541;53.230;10.518;2023-06-14T08:41:05;21.00;99.90
7002;DHT22;3541;53.230;10.518;2023-06-14T08:43:32;21.10;99.90
7002;DHT22;3541;53.230;10.518;2023-06-14T08:46:02;21.10;99.90
7002;DHT22;3541;53.230;10.518;2023-06-14T08:48:30;21.20;99.90
7002;DHT22;3541;53.230;10.518;2023-06-14T08:51:00;21.20;99.90
7002;DHT22;3541;53.230;10.518;2023-06-14T08:53:29;21.30;99.90
7002;DHT22;3541;53.230;10.518;2023-06-14T08:55:59;21.40;99.90
7002;DHT22;3541;53.230;10.518;2023-06-14T08:58:27;21.50;99.90
7002;DHT22;3541;53.230;10.518;2023-06-14T09:00:55;21.60;99.90
7002;DHT22;3541;53.230;10.518;2023-06-14T09:03:21;21.70;99.90
7002;DHT22;3541;53.230;10.518;2023-06-14T09:05:55;21.70;99.90
7002;DHT22;3541;53.230;10.518;2023-06-14T09:08:24;21.70;99.90
7002;DHT22;3541;53.230;10.518;2023-06-14T09:10:51;21.70;99.90
7002;DHT22;3541;53.230;10.518;2023-06-14T09:13:19;21.80;99.90
7002;DHT22;3541;53.230;10.518;2023-06-14T09:15:46;21.90;99.90
7002;DHT22;3541;53.230;10.518;2023-06-14T09:18:12;21.90;99.90
7002;DHT22;3541;53.230;10.518;2023-06-14T09:20:40;21.90;99.90
7002;DHT22;3541;53.230;10.518;2023-06-14T09:23:06;22.10;99.90
7002;DHT22;3541;53.230;10.518;2023-06-14T09:25:41;22.10;99.90
7002;DHT22;3541;53.230;10.518;2023-06-14T09:28:09;22.20;99.90
7002;DHT22;3541;53.230;10.518;2023-06-14T09:30:38;22.20;99.90
7002;DHT22;3541;53.230;10.518;2023-06-14T09:33:05;22.30;99.90
7002;DHT22;3541;53.230;10.518;2023-06-14T09:35:32;22.50;99.90
7002;DHT22;3541;53.230;10.518;2023-06-14T09:37:59;22.60;99.90
7002;DHT22;3541;53.230;10.518;2023-06-14T09:40:26;22.80;99.90
7002;DHT22;3541;53.230;10.518;2023-06-14T09:42:53;23.00;99.90
7002;DHT22;3541;53.230;10.518;2023-06-14T09:45:20;22.90;99.90
7002;DHT22;3541;53.230;10.518;2023-06-14T09:47:49;22.70;99.90
7002;DHT22;3541;53.230;10.518;2023-06-14T09:50:16;22.40;99.90
7002;DHT22;3541;53.230;10.518;2023-06-14T09:52:43;22.40;99.90
7002;DHT22;3541;53.230;10.518;2023-06-14T09:55:12;22.60;99.90
7002;DHT22;3541;53.230;10.518;2023-06-14T09:57:41;22.80;99.90
7002;DHT22;3541;53.230;10.518;2023-06-14T10:00:09;22.90;99.90
7002;DHT22;3541;53.230;10.518;2023-06-14T10:02:38;22.90;99.90
7002;DHT22;3541;53.230;10.518;2023-06-14T10:05:11;22.80;99.90
7002;DHT22;3541;53.230;10.518;2023-06-14T10:07:42;22.90;99.90
7002;DHT22;3541;53.230;10.518;2023-06-14T10:10:09;23.00;99.90
7002;DHT22;3541;53.230;10.518;2023-06-14T10:12:36;23.00;99.90
7002;DHT22;3541;53.230;10.518;2023-06-14T10:15:04;23.00;99.90
7002;DHT22;3541;53.230;10.518;2023-06-14T10:17:38;23.10;99.90
7002;DHT22;3541;53.230;10.518;2023-06-14T10:20:18;23.30;99.90
7002;DHT22;3541;53.230;10.518;2023-06-14T10:22:50;23.20;99.90
7002;DHT22;3541;53.230;10.518;2023-06-14T10:25:27;23.20;99.90
7002;DHT22;3541;53.230;10.518;2023-06-14T10:28:03;23.10;99.90
7002;DHT22;3541;53.230;10.518;2023-06-14T10:30:31;23.30;99.90
7002;DHT22;3541;53.230;10.518;2023-06-14T10:33:04;23.20;99.90
7002;DHT22;3541;53.230;10.518;2023-06-14T10:35:33;23.30;99.90
7002;DHT22;3541;53.230;10.518;2023-06-14T10:38:07;23.60;99.90
7002;DHT22;3541;53.230;10.518;2023-06-14T10:40:34;23.90;99.90
7002;DHT22;3541;53.230;10.518;2023-06-14T10:43:21;23.80;99.90
7002;DHT22;3541;53.230;10.518;2023-06-14T10:46:14;23.50;99.90
7002;DHT22;3541;53.230;10.518;2023-06-14T10:48:41;23.30;99.90
7002;DHT22;3541;53.230;10.518;2023-06-14T10:51:15;23.20;99.90
7002;DHT22;3541;53.230;10.518;2023-06-14T10:53:45;23.40;99.90
7002;DHT22;3541;53.230;10.518;2023-06-14T10:56:23;23.60;99.90
7002;DHT22;3541;53.230;10.518;2023-06-14T10:58:51;23.90;99.90
7002;DHT22;3541;53.230;10.518;2023-06-14T11:01:28;24.00;99.90
7002;DHT22;3541;53.230;10.518;2023-06-14T11:04:06;24.00;99.90
7002;DHT22;3541;53.230;10.518;2023-06-14T11:06:47;24.00;99.90
7002;DHT22;3541;53.230;10.518;2023-06-14T11:09:29;23.80;99.90
7002;DHT22;3541;53.230;10.518;2023-06-14T11:12:04;23.70;99.90
7002;DHT22;3541;53.230;10.518;2023-06-14T11:14:32;23.50;99.90
7002;DHT22;3541;53.230;10.518;2023-06-14T11:16:59;23.50;99.90
7002;DHT22;3541;53.230;10.518;2023-06-14T11:19:26;23.50;99.90
7002;DHT22;3541;53.230;10.518;2023-06-14T11:21:55;23.60;99.90
7002;DHT22;3541;53.230;10.518;2023-06-14T11:24:21;23.80;99.90
7002;DHT22;3541;53.230;10.518;2023-06-14T11:26:48;24.20;99.90
7002;DHT22;3541;53.230;10.518;2023-06-14T11:29:16;24.30;99.90
7002;DHT22;3541;53.230;10.518;2023-06-14T11:31:43;24.30;99.90
7002;DHT22;3541;53.230;10.518;2023-06-14T11:34:11;24.20;99.90
7002;DHT22;3541;53.230;10.518;2023-06-14T11:36:38;24.40;99.90
7002;DHT22;3541;53.230;10.518;2023-06-14T11:39:07;24.50;99.90
7002;DHT22;3541;53.230;10.518;2023-06-14T11:41:36;24.60;99.90
7002;DHT22;3541;53.230;10.518;2023-06-14T11:44:03;24.60;99.90
7002;DHT22;3541;53.230;10.518;2023-06-14T11:46:31;24.60;99.90
7002;DHT22;3541;53.230;10.518;2023-06-14T11:48:57;24.80;99.90
7002;DHT22;3541;53.230;10.518;2023-06-14T11:51:24;24.90;99.90
7002;DHT22;3541;53.230;10.518;2023-06-14T11:53:51;25.10;99.90
7002;DHT22;3541;53.230;10.518;2023-06-14T11:56:19;25.20;99.90
7002;DHT22;3541;53.230;10.518;2023-06-14T11:58:46;25.30;99.90
7002;DHT22;3541;53.230;10.518;2023-06-14T12:01:16;25.40;99.90
7002;DHT22;3541;53.230;10.518;2023-06-14T12:03:47;25.20;99.90
7002;DHT22;3541;53.230;10.518;2023-06-14T12:06:15;24.90;99.90
7002;DHT22;3541;53.230;10.518;2023-06-14T12:08:43;24.70;99.90
7002;DHT22;3541;53.230;10.518;2023-06-14T12:11:12;24.60;99.90
7002;DHT22;3541;53.230;10.518;2023-06-14T12:13:40;24.50;99.90
7002;DHT22;3541;53.230;10.518;2023-06-14T12:16:07;24.40;99.90
7002;DHT22;3541;53.230;10.518;2023-06-14T12:18:35;24.40;99.90
7002;DHT22;3541;53.230;10.518;2023-06-14T12:21:03;24.60;99.90
7002;DHT22;3541;53.230;10.518;2023-06-14T12:23:43;24.70;99.90
7002;DHT22;3541;53.230;10.518;2023-06-14T12:26:12;24.90;99.90
7002;DHT22;3541;53.230;10.518;2023-06-14T12:28:41;25.10;99.30
7002;DHT22;3541;53.230;10.518;2023-06-14T12:31:08;25.30;99.20
7002;DHT22;3541;53.230;10.518;2023-06-14T12:33:34;25.40;98.70
7002;DHT22;3541;53.230;10.518;2023-06-14T12:36:03;25.50;98.80
7002;DHT22;3541;53.230;10.518;2023-06-14T12:38:30;25.60;98.50
7002;DHT22;3541;53.230;10.518;2023-06-14T12:40:57;25.90;98.80
7002;DHT22;3541;53.230;10.518;2023-06-14T12:43:23;25.90;97.90
7002;DHT22;3541;53.230;10.518;2023-06-14T12:45:51;25.60;97.90
7002;DHT22;3541;53.230;10.518;2023-06-14T12:48:18;25.30;98.50
7002;DHT22;3541;53.230;10.518;2023-06-14T12:50:45;25.30;97.80
7002;DHT22;3541;53.230;10.518;2023-06-14T12:53:12;25.50;97.50
7002;DHT22;3541;53.230;10.518;2023-06-14T12:55:39;25.70;96.80
7002;DHT22;3541;53.230;10.518;2023-06-14T12:58:06;26.00;96.40
7002;DHT22;3541;53.230;10.518;2023-06-14T13:00:32;26.10;95.90
7002;DHT22;3541;53.230;10.518;2023-06-14T13:03:00;26.30;95.90
7002;DHT22;3541;53.230;10.518;2023-06-14T13:05:27;26.40;94.70
7002;DHT22;3541;53.230;10.518;2023-06-14T13:07:53;26.30;95.50
7002;DHT22;3541;53.230;10.518;2023-06-14T13:10:20;26.40;94.40
7002;DHT22;3541;53.230;10.518;2023-06-14T13:12:47;26.60;94.20
7002;DHT22;3541;53.230;10.518;2023-06-14T13:15:14;26.60;94.30
7002;DHT22;3541;53.230;10.518;2023-06-14T13:17:40;26.60;93.20
7002;DHT22;3541;53.230;10.518;2023-06-14T13:20:10;26.50;92.10
7002;DHT22;3541;53.230;10.518;2023-06-14T13:22:37;26.20;92.90
7002;DHT22;3541;53.230;10.518;2023-06-14T13:25:06;26.10;92.60
7002;DHT22;3541;53.230;10.518;2023-06-14T13:27:32;26.10;93.00
7002;DHT22;3541;53.230;10.518;2023-06-14T13:29:59;26.00;93.10
7002;DHT22;3541;53.230;10.518;2023-06-14T13:32:25;25.80;92.50
7002;DHT22;3541;53.230;10.518;2023-06-14T13:34:52;25.90;92.50
7002;DHT22;3541;53.230;10.518;2023-06-14T13:37:20;26.00;92.30
7002;DHT22;3541;53.230;10.518;2023-06-14T13:39:46;26.00;92.30
7002;DHT22;3541;53.230;10.518;2023-06-14T13:42:13;26.30;92.40
7002;DHT22;3541;53.230;10.518;2023-06-14T13:44:40;26.50;92.30
7002;DHT22;3541;53.230;10.518;2023-06-14T13:47:07;26.70;91.50
7002;DHT22;3541;53.230;10.518;2023-06-14T13:49:33;26.40;92.30
7002;DHT22;3541;53.230;10.518;2023-06-14T13:52:00;26.10;92.00
7002;DHT22;3541;53.230;10.518;2023-06-14T13:54:29;25.70;92.60
7002;DHT22;3541;53.230;10.518;2023-06-14T13:56:56;25.50;92.30
7002;DHT22;3541;53.230;10.518;2023-06-14T13:59:22;25.30;92.10
7002;DHT22;3541;53.230;10.518;2023-06-14T14:01:49;25.20;92.50
7002;DHT22;3541;53.230;10.518;2023-06-14T14:04:15;25.10;92.60
7002;DHT22;3541;53.230;10.518;2023-06-14T14:06:43;25.20;92.30
7002;DHT22;3541;53.230;10.518;2023-06-14T14:09:09;25.60;91.70
7002;DHT22;3541;53.230;10.518;2023-06-14T14:11:37;26.20;90.40
7002;DHT22;3541;53.230;10.518;2023-06-14T14:14:05;26.70;90.10
7002;DHT22;3541;53.230;10.518;2023-06-14T14:16:31;27.00;89.80
7002;DHT22;3541;53.230;10.518;2023-06-14T14:18:58;27.20;90.30
7002;DHT22;3541;53.230;10.518;2023-06-14T14:21:25;27.40;86.70
7002;DHT22;3541;53.230;10.518;2023-06-14T14:23:51;27.70;86.90
7002;DHT22;3541;53.230;10.518;2023-06-14T14:26:18;27.90;87.30
7002;DHT22;3541;53.230;10.518;2023-06-14T14:28:47;28.10;89.40
7002;DHT22;3541;53.230;10.518;2023-06-14T14:31:13;28.30;89.70
7002;DHT22;3541;53.230;10.518;2023-06-14T14:33:40;28.20;87.90
7002;DHT22;3541;53.230;10.518;2023-06-14T14:36:07;28.00;87.20
7002;DHT22;3541;53.230;10.518;2023-06-14T14:38:34;27.70;88.50
7002;DHT22;3541;53.230;10.518;2023-06-14T14:41:00;27.70;90.40
7002;DHT22;3541;53.230;10.518;2023-06-14T14:43:27;27.50;88.00
7002;DHT22;3541;53.230;10.518;2023-06-14T14:45:57;27.30;89.30
7002;DHT22;3541;53.230;10.518;2023-06-14T14:48:24;27.10;89.70
7002;DHT22;3541;53.230;10.518;2023-06-14T14:50:50;27.00;89.90
7002;DHT22;3541;53.230;10.518;2023-06-14T14:53:17;26.60;89.90
7002;DHT22;3541;53.230;10.518;2023-06-14T14:55:43;26.70;90.40
7002;DHT22;3541;53.230;10.518;2023-06-14T14:58:12;26.60;90.00
7002;DHT22;3541;53.230;10.518;2023-06-14T15:00:42;26.40;89.50
7002;DHT22;3541;53.230;10.518;2023-06-14T15:03:10;26.30;90.40
7002;DHT22;3541;53.230;10.518;2023-06-14T15:05:37;26.10;91.10
7002;DHT22;3541;53.230;10.518;2023-06-14T15:08:04;26.00;92.00
7002;DHT22;3541;53.230;10.518;2023-06-14T15:10:36;25.80;92.80
7002;DHT22;3541;53.230;10.518;2023-06-14T15:13:03;25.70;93.60
7002;DHT22;3541;53.230;10.518;2023-06-14T15:15:30;25.60;94.10
7002;DHT22;3541;53.230;10.518;2023-06-14T15:17:57;25.60;94.30
7002;DHT22;3541;53.230;10.518;2023-06-14T15:20:24;25.60;94.00
7002;DHT22;3541;53.230;10.518;2023-06-14T15:22:51;25.90;94.00
7002;DHT22;3541;53.230;10.518;2023-06-14T15:25:18;26.00;93.40
7002;DHT22;3541;53.230;10.518;2023-06-14T15:27:46;26.30;94.20
7002;DHT22;3541;53.230;10.518;2023-06-14T15:30:13;26.90;93.30
7002;DHT22;3541;53.230;10.518;2023-06-14T15:32:40;27.20;92.10
7002;DHT22;3541;53.230;10.518;2023-06-14T15:35:07;27.50;91.90
7002;DHT22;3541;53.230;10.518;2023-06-14T15:37:35;27.80;91.00
7002;DHT22;3541;53.230;10.518;2023-06-14T15:40:02;28.00;90.60
7002;DHT22;3541;53.230;10.518;2023-06-14T15:42:28;27.80;90.50
7002;DHT22;3541;53.230;10.518;2023-06-14T15:44:55;28.00;90.30
7002;DHT22;3541;53.230;10.518;2023-06-14T15:47:22;28.00;89.60
7002;DHT22;3541;53.230;10.518;2023-06-14T15:49:51;28.10;89.80
7002;DHT22;3541;53.230;10.518;2023-06-14T15:52:17;28.20;90.00
7002;DHT22;3541;53.230;10.518;2023-06-14T15:54:45;27.80;88.70
7002;DHT22;3541;53.230;10.518;2023-06-14T15:57:12;27.20;90.00
7002;DHT22;3541;53.230;10.518;2023-06-14T15:59:38;26.90;90.80
7002;DHT22;3541;53.230;10.518;2023-06-14T16:02:06;26.50;90.70
7002;DHT22;3541;53.230;10.518;2023-06-14T16:04:32;26.10;91.50
7002;DHT22;3541;53.230;10.518;2023-06-14T16:06:59;26.10;91.40
7002;DHT22;3541;53.230;10.518;2023-06-14T16:09:25;26.50;91.60
7002;DHT22;3541;53.230;10.518;2023-06-14T16:11:53;27.00;90.80
7002;DHT22;3541;53.230;10.518;2023-06-14T16:14:20;27.10;90.60
7002;DHT22;3541;53.230;10.518;2023-06-14T16:16:47;27.30;90.40
7002;DHT22;3541;53.230;10.518;2023-06-14T16:19:14;27.30;90.20
7002;DHT22;3541;53.230;10.518;2023-06-14T16:21:40;27.60;90.00
7002;DHT22;3541;53.230;10.518;2023-06-14T16:24:07;27.50;89.80
7002;DHT22;3541;53.230;10.518;2023-06-14T16:26:34;27.70;89.10
7002;DHT22;3541;53.230;10.518;2023-06-14T16:29:02;27.70;88.20
7002;DHT22;3541;53.230;10.518;2023-06-14T16:31:29;27.60;89.30
7002;DHT22;3541;53.230;10.518;2023-06-14T16:33:55;27.50;88.40
7002;DHT22;3541;53.230;10.518;2023-06-14T16:36:22;27.60;88.00
7002;DHT22;3541;53.230;10.518;2023-06-14T16:38:49;27.50;88.10
7002;DHT22;3541;53.230;10.518;2023-06-14T16:41:16;27.80;87.70
7002;DHT22;3541;53.230;10.518;2023-06-14T16:43:43;27.80;87.30
7002;DHT22;3541;53.230;10.518;2023-06-14T16:46:13;27.90;86.60
7002;DHT22;3541;53.230;10.518;2023-06-14T16:48:40;27.90;86.30
7002;DHT22;3541;53.230;10.518;2023-06-14T16:51:06;27.70;85.90